sensor_id;sensor_type;location;lat;lon;timestamp;P1;durP1;ratioP1;P2;durP2;ratioP2
16478;SDS011;8350;52.316;10.530;2022-10-15T00:02:17;6.15;;;5.50;;
16478;SDS011;8350;52.316;10.530;2022-10-15T00:04:44;6.78;;;6.18;;
16478;SDS011;8350;52.316;10.530;2022-10-15T00:07:12;6.60;;;6.00;;
16478;SDS011;8350;52.316;10.530;2022-10-15T00:09:39;7.32;;;6.63;;
16478;SDS011;8350;52.316;10.530;2022-10-15T00:12:07;6.85;;;6.15;;
16478;SDS011;8350;52.316;10.530;2022-10-15T00:14:34;7.13;;;6.43;;
16478;SDS011;8350;52.316;10.530;2022-10-15T00:17:01;6.75;;;6.15;;
16478;SDS011;8350;52.316;10.530;2022-10-15T00:19:28;7.90;;;7.20;;
16478;SDS011;8350;52.316;10.530;2022-10-15T00:21:55;8.38;;;7.15;;
16478;SDS011;8350;52.316;10.530;2022-10-15T00:24:22;7.30;;;6.22;;
16478;SDS011;8350;52.316;10.530;2022-10-15T00:26:49;7.97;;;7.13;;
16478;SDS011;8350;52.316;10.530;2022-10-15T00:29:18;9.65;;;7.32;;
16478;SDS011;8350;52.316;10.530;2022-10-15T00:31:45;8.65;;;7.85;;
16478;SDS011;8350;52.316;10.530;2022-10-15T00:34:12;7.55;;;6.85;;
16478;SDS011;8350;52.316;10.530;2022-10-15T00:36:39;7.90;;;7.20;;
16478;SDS011;8350;52.316;10.530;2022-10-15T00:39:06;8.43;;;7.63;;
16478;SDS011;8350;52.316;10.530;2022-10-15T00:41:34;8.52;;;7.72;;
16478;SDS011;8350;52.316;10.530;2022-10-15T00:47:05;8.18;;;7.38;;
16478;SDS011;8350;52.316;10.530;2022-10-15T00:49:39;8.35;;;7.65;;
16478;SDS011;8350;52.316;10.530;2022-10-15T00:52:09;8.60;;;7.70;;
16478;SDS011;8350;52.316;10.530;2022-10-15T00:54:39;11.73;;;7.80;;
16478;SDS011;8350;52.316;10.530;2022-10-15T00:57:10;7.72;;;7.03;;
16478;SDS011;8350;52.316;10.530;2022-10-15T00:59:38;9.13;;;7.68;;
16478;SDS011;8350;52.316;10.530;2022-10-15T01:02:10;7.85;;;6.95;;
16478;SDS011;8350;52.316;10.530;2022-10-15T01:04:38;8.00;;;7.03;;
16478;SDS011;8350;52.316;10.530;2022-10-15T01:07:07;9.43;;;7.60;;
16478;SDS011;8350;52.316;10.530;2022-10-15T01:09:34;8.02;;;7.05;;
16478;SDS011;8350;52.316;10.530;2022-10-15T01:12:01;8.43;;;7.57;;
16478;SDS011;8350;52.316;10.530;2022-10-15T01:14:35;7.80;;;7.10;;
16478;SDS011;8350;52.316;10.530;2022-10-15T01:17:13;8.13;;;7.38;;
16478;SDS011;8350;52.316;10.530;2022-10-15T01:19:52;9.23;;;8.43;;
16478;SDS011;8350;52.316;10.530;2022-10-15T01:22:43;10.05;;;7.65;;
16478;SDS011;8350;52.316;10.530;2022-10-15T01:25:28;8.20;;;7.50;;
16478;SDS011;8350;52.316;10.530;2022-10-15T01:28:10;9.65;;;8.50;;
16478;SDS011;8350;52.316;10.530;2022-10-15T01:30:47;8.18;;;7.30;;
16478;SDS011;8350;52.316;10.530;2022-10-15T01:33:21;7.57;;;6.97;;
16478;SDS011;8350;52.316;10.530;2022-10-15T01:35:53;8.82;;;7.97;;
16478;SDS011;8350;52.316;10.530;2022-10-15T01:38:29;8.95;;;7.72;;
16478;SDS011;8350;52.316;10.530;2022-10-15T01:41:08;8.55;;;7.65;;
16478;SDS011;8350;52.316;10.530;2022-10-15T01:43:39;8.45;;;7.70;;
16478;SDS011;8350;52.316;10.530;2022-10-15T01:46:13;9.60;;;8.70;;
16478;SDS011;8350;52.316;10.530;2022-10-15T01:48:44;8.82;;;7.25;;
16478;SDS011;8350;52.316;10.530;2022-10-15T01:51:11;8.55;;;7.85;;
16478;SDS011;8350;52.316;10.530;2022-10-15T01:53:42;8.80;;;7.97;;
16478;SDS011;8350;52.316;10.530;2022-10-15T01:56:10;8.65;;;7.80;;
16478;SDS011;8350;52.316;10.530;2022-10-15T01:58:41;8.27;;;7.50;;
16478;SDS011;8350;52.316;10.530;2022-10-15T02:01:09;8.93;;;8.02;;
16478;SDS011;8350;52.316;10.530;2022-10-15T02:03:45;9.38;;;8.48;;
16478;SDS011;8350;52.316;10.530;2022-10-15T02:06:14;8.18;;;7.38;;
16478;SDS011;8350;52.316;10.530;2022-10-15T02:08:49;8.52;;;7.72;;
16478;SDS011;8350;52.316;10.530;2022-10-15T02:11:23;8.75;;;7.85;;
16478;SDS011;8350;52.316;10.530;2022-10-15T02:13:50;8.25;;;7.55;;
16478;SDS011;8350;52.316;10.530;2022-10-15T02:16:26;8.98;;;7.95;;
16478;SDS011;8350;52.316;10.530;2022-10-15T02:19:03;8.35;;;7.55;;
16478;SDS011;8350;52.316;10.530;2022-10-15T02:21:34;8.50;;;7.70;;
16478;SDS011;8350;52.316;10.530;2022-10-15T02:24:06;9.07;;;8.27;;
16478;SDS011;8350;52.316;10.530;2022-10-15T02:26:36;8.38;;;7.10;;
16478;SDS011;8350;52.316;10.530;2022-10-15T02:29:07;9.27;;;8.23;;
16478;SDS011;8350;52.316;10.530;2022-10-15T02:31:37;7.85;;;7.05;;
16478;SDS011;8350;52.316;10.530;2022-10-15T02:34:10;8.27;;;7.47;;
16478;SDS011;8350;52.316;10.530;2022-10-15T02:36:42;8.52;;;7.72;;
16478;SDS011;8350;52.316;10.530;2022-10-15T02:39:11;8.00;;;7.20;;
16478;SDS011;8350;52.316;10.530;2022-10-15T02:41:41;7.45;;;6.75;;
16478;SDS011;8350;52.316;10.530;2022-10-15T02:44:09;8.07;;;7.38;;
16478;SDS011;8350;52.316;10.530;2022-10-15T02:46:36;7.80;;;7.10;;
16478;SDS011;8350;52.316;10.530;2022-10-15T02:49:03;8.52;;;7.72;;
16478;SDS011;8350;52.316;10.530;2022-10-15T02:51:32;9.75;;;8.32;;
16478;SDS011;8350;52.316;10.530;2022-10-15T02:53:59;8.65;;;7.80;;
16478;SDS011;8350;52.316;10.530;2022-10-15T02:56:28;8.43;;;7.53;;
16478;SDS011;8350;52.316;10.530;2022-10-15T02:58:55;9.02;;;8.13;;
16478;SDS011;8350;52.316;10.530;2022-10-15T03:01:22;9.43;;;8.52;;
16478;SDS011;8350;52.316;10.530;2022-10-15T03:03:49;8.60;;;7.80;;
16478;SDS011;8350;52.316;10.530;2022-10-15T03:06:16;7.68;;;6.88;;
16478;SDS011;8350;52.316;10.530;2022-10-15T03:08:45;8.82;;;8.02;;
16478;SDS011;8350;52.316;10.530;2022-10-15T03:11:12;10.35;;;8.45;;
16478;SDS011;8350;52.316;10.530;2022-10-15T03:13:42;8.65;;;7.78;;
16478;SDS011;8350;52.316;10.530;2022-10-15T03:16:10;8.00;;;7.28;;
16478;SDS011;8350;52.316;10.530;2022-10-15T03:18:37;7.95;;;7.18;;
16478;SDS011;8350;52.316;10.530;2022-10-15T03:21:04;8.52;;;7.55;;
16478;SDS011;8350;52.316;10.530;2022-10-15T03:23:32;8.68;;;7.88;;
16478;SDS011;8350;52.316;10.530;2022-10-15T03:26:00;7.57;;;6.88;;
16478;SDS011;8350;52.316;10.530;2022-10-15T03:28:27;7.60;;;6.68;;
16478;SDS011;8350;52.316;10.530;2022-10-15T03:30:54;7.20;;;6.53;;
16478;SDS011;8350;52.316;10.530;2022-10-15T03:33:21;7.63;;;6.93;;
16478;SDS011;8350;52.316;10.530;2022-10-15T03:35:48;7.55;;;6.63;;
16478;SDS011;8350;52.316;10.530;2022-10-15T03:38:19;7.22;;;6.60;;
16478;SDS011;8350;52.316;10.530;2022-10-15T03:40:45;8.05;;;7.28;;
16478;SDS011;8350;52.316;10.530;2022-10-15T03:43:14;7.70;;;6.88;;
16478;SDS011;8350;52.316;10.530;2022-10-15T03:45:41;7.95;;;7.18;;
16478;SDS011;8350;52.316;10.530;2022-10-15T03:48:08;6.95;;;6.25;;
16478;SDS011;8350;52.316;10.530;2022-10-15T03:50:35;6.88;;;6.28;;
16478;SDS011;8350;52.316;10.530;2022-10-15T03:53:02;7.18;;;6.57;;
16478;SDS011;8350;52.316;10.530;2022-10-15T03:55:30;7.05;;;6.35;;
16478;SDS011;8350;52.316;10.530;2022-10-15T03:57:57;6.43;;;5.82;;
16478;SDS011;8350;52.316;10.530;2022-10-15T04:00:26;6.28;;;5.78;;
16478;SDS011;8350;52.316;10.530;2022-10-15T04:02:54;6.72;;;6.13;;
16478;SDS011;8350;52.316;10.530;2022-10-15T04:05:21;6.70;;;6.10;;
16478;SDS011;8350;52.316;10.530;2022-10-15T04:07:48;6.05;;;5.55;;
16478;SDS011;8350;52.316;10.530;2022-10-15T04:10:15;5.25;;;4.85;;
16478;SDS011;8350;52.316;10.530;2022-10-15T04:12:42;5.38;;;4.97;;
16478;SDS011;8350;52.316;10.530;2022-10-15T04:15:09;4.28;;;3.97;;
16478;SDS011;8350;52.316;10.530;2022-10-15T04:17:38;4.38;;;3.97;;
16478;SDS011;8350;52.316;10.530;2022-10-15T04:20:05;4.28;;;3.97;;
16478;SDS011;8350;52.316;10.530;2022-10-15T04:22:33;4.07;;;3.55;;
16478;SDS011;8350;52.316;10.530;2022-10-15T04:25:02;3.60;;;3.30;;
16478;SDS011;8350;52.316;10.530;2022-10-15T04:27:29;3.00;;;2.70;;
16478;SDS011;8350;52.316;10.530;2022-10-15T04:29:56;3.35;;;2.70;;
16478;SDS011;8350;52.316;10.530;2022-10-15T04:32:23;4.38;;;3.90;;
16478;SDS011;8350;52.316;10.530;2022-10-15T04:34:52;3.53;;;3.22;;
16478;SDS011;8350;52.316;10.530;2022-10-15T04:37:19;3.53;;;3.22;;
16478;SDS011;8350;52.316;10.530;2022-10-15T04:39:45;4.05;;;3.70;;
16478;SDS011;8350;52.316;10.530;2022-10-15T04:42:12;4.32;;;3.92;;
16478;SDS011;8350;52.316;10.530;2022-10-15T04:44:39;3.80;;;3.50;;
16478;SDS011;8350;52.316;10.530;2022-10-15T04:47:06;3.58;;;3.28;;
16478;SDS011;8350;52.316;10.530;2022-10-15T04:49:33;3.83;;;3.50;;
16478;SDS011;8350;52.316;10.530;2022-10-15T04:52:02;20.65;;;3.08;;
16478;SDS011;8350;52.316;10.530;2022-10-15T04:54:29;2.33;;;2.13;;
16478;SDS011;8350;52.316;10.530;2022-10-15T04:56:56;2.80;;;2.28;;
16478;SDS011;8350;52.316;10.530;2022-10-15T04:59:23;2.40;;;2.20;;
16478;SDS011;8350;52.316;10.530;2022-10-15T05:01:50;2.42;;;2.22;;
16478;SDS011;8350;52.316;10.530;2022-10-15T05:04:17;2.67;;;2.47;;
16478;SDS011;8350;52.316;10.530;2022-10-15T05:06:44;3.00;;;2.70;;
16478;SDS011;8350;52.316;10.530;2022-10-15T05:09:12;2.50;;;2.30;;
16478;SDS011;8350;52.316;10.530;2022-10-15T05:11:39;2.58;;;2.38;;
16478;SDS011;8350;52.316;10.530;2022-10-15T05:14:06;2.88;;;2.60;;
16478;SDS011;8350;52.316;10.530;2022-10-15T05:16:33;3.17;;;2.88;;
16478;SDS011;8350;52.316;10.530;2022-10-15T05:19:01;3.28;;;2.97;;
16478;SDS011;8350;52.316;10.530;2022-10-15T05:21:29;3.78;;;3.30;;
16478;SDS011;8350;52.316;10.530;2022-10-15T05:23:57;5.32;;;4.07;;
16478;SDS011;8350;52.316;10.530;2022-10-15T05:26:26;4.72;;;3.97;;
16478;SDS011;8350;52.316;10.530;2022-10-15T05:28:55;3.33;;;3.03;;
16478;SDS011;8350;52.316;10.530;2022-10-15T05:31:23;2.65;;;2.38;;
16478;SDS011;8350;52.316;10.530;2022-10-15T05:33:54;2.72;;;2.53;;
16478;SDS011;8350;52.316;10.530;2022-10-15T05:36:22;2.50;;;2.30;;
16478;SDS011;8350;52.316;10.530;2022-10-15T05:38:51;3.20;;;2.35;;
16478;SDS011;8350;52.316;10.530;2022-10-15T05:41:19;3.78;;;2.28;;
16478;SDS011;8350;52.316;10.530;2022-10-15T05:43:48;3.20;;;2.90;;
16478;SDS011;8350;52.316;10.530;2022-10-15T05:46:16;2.40;;;2.20;;
16478;SDS011;8350;52.316;10.530;2022-10-15T05:48:46;2.70;;;2.50;;
16478;SDS011;8350;52.316;10.530;2022-10-15T05:51:14;2.22;;;2.03;;
16478;SDS011;8350;52.316;10.530;2022-10-15T05:53:42;2.95;;;2.70;;
16478;SDS011;8350;52.316;10.530;2022-10-15T05:56:40;3.55;;;2.47;;
16478;SDS011;8350;52.316;10.530;2022-10-15T05:59:09;2.95;;;2.40;;
16478;SDS011;8350;52.316;10.530;2022-10-15T06:01:36;3.25;;;2.95;;
16478;SDS011;8350;52.316;10.530;2022-10-15T06:04:09;3.85;;;3.47;;
16478;SDS011;8350;52.316;10.530;2022-10-15T06:06:36;3.20;;;2.90;;
16478;SDS011;8350;52.316;10.530;2022-10-15T06:09:03;3.40;;;3.10;;
16478;SDS011;8350;52.316;10.530;2022-10-15T06:11:30;2.53;;;2.33;;
16478;SDS011;8350;52.316;10.530;2022-10-15T06:13:57;6.80;;;3.40;;
16478;SDS011;8350;52.316;10.530;2022-10-15T06:16:25;3.85;;;3.47;;
16478;SDS011;8350;52.316;10.530;2022-10-15T06:18:53;5.18;;;4.18;;
16478;SDS011;8350;52.316;10.530;2022-10-15T06:21:20;5.78;;;4.15;;
16478;SDS011;8350;52.316;10.530;2022-10-15T06:23:47;4.15;;;3.75;;
16478;SDS011;8350;52.316;10.530;2022-10-15T06:26:14;6.43;;;5.00;;
16478;SDS011;8350;52.316;10.530;2022-10-15T06:28:41;5.50;;;5.00;;
16478;SDS011;8350;52.316;10.530;2022-10-15T06:31:08;6.03;;;5.30;;
16478;SDS011;8350;52.316;10.530;2022-10-15T06:33:37;7.22;;;5.72;;
16478;SDS011;8350;52.316;10.530;2022-10-15T06:36:05;5.80;;;5.30;;
16478;SDS011;8350;52.316;10.530;2022-10-15T06:38:34;4.75;;;4.35;;
16478;SDS011;8350;52.316;10.530;2022-10-15T06:41:03;4.90;;;4.43;;
16478;SDS011;8350;52.316;10.530;2022-10-15T06:43:30;4.47;;;4.07;;
16478;SDS011;8350;52.316;10.530;2022-10-15T06:45:58;4.95;;;4.18;;
16478;SDS011;8350;52.316;10.530;2022-10-15T06:48:25;4.35;;;3.92;;
16478;SDS011;8350;52.316;10.530;2022-10-15T06:50:53;5.03;;;4.53;;
16478;SDS011;8350;52.316;10.530;2022-10-15T06:53:22;5.30;;;4.80;;
16478;SDS011;8350;52.316;10.530;2022-10-15T06:55:50;5.75;;;5.25;;
16478;SDS011;8350;52.316;10.530;2022-10-15T06:58:16;7.55;;;6.82;;
16478;SDS011;8350;52.316;10.530;2022-10-15T07:00:43;6.55;;;5.95;;
16478;SDS011;8350;52.316;10.530;2022-10-15T07:03:10;5.75;;;5.25;;
16478;SDS011;8350;52.316;10.530;2022-10-15T07:05:37;6.50;;;5.90;;
16478;SDS011;8350;52.316;10.530;2022-10-15T07:08:06;6.32;;;5.57;;
16478;SDS011;8350;52.316;10.530;2022-10-15T07:10:33;6.35;;;5.72;;
16478;SDS011;8350;52.316;10.530;2022-10-15T07:13:00;6.72;;;6.13;;
16478;SDS011;8350;52.316;10.530;2022-10-15T07:15:27;6.28;;;5.70;;
16478;SDS011;8350;52.316;10.530;2022-10-15T07:17:55;6.55;;;5.88;;
16478;SDS011;8350;52.316;10.530;2022-10-15T07:20:25;8.05;;;6.97;;
16478;SDS011;8350;52.316;10.530;2022-10-15T07:22:57;7.90;;;7.10;;
16478;SDS011;8350;52.316;10.530;2022-10-15T07:25:27;7.97;;;7.10;;
16478;SDS011;8350;52.316;10.530;2022-10-15T07:27:54;8.35;;;6.53;;
16478;SDS011;8350;52.316;10.530;2022-10-15T07:30:21;8.65;;;7.63;;
16478;SDS011;8350;52.316;10.530;2022-10-15T07:32:51;10.43;;;7.97;;
16478;SDS011;8350;52.316;10.530;2022-10-15T07:35:18;10.20;;;7.60;;
16478;SDS011;8350;52.316;10.530;2022-10-15T07:37:45;9.23;;;8.43;;
16478;SDS011;8350;52.316;10.530;2022-10-15T07:40:14;9.02;;;8.13;;
16478;SDS011;8350;52.316;10.530;2022-10-15T07:42:43;9.68;;;8.88;;
16478;SDS011;8350;52.316;10.530;2022-10-15T07:45:10;10.63;;;8.98;;
16478;SDS011;8350;52.316;10.530;2022-10-15T07:47:38;10.40;;;9.40;;
16478;SDS011;8350;52.316;10.530;2022-10-15T07:50:06;10.70;;;9.65;;
16478;SDS011;8350;52.316;10.530;2022-10-15T07:52:33;10.93;;;9.85;;
16478;SDS011;8350;52.316;10.530;2022-10-15T07:55:00;10.85;;;9.85;;
16478;SDS011;8350;52.316;10.530;2022-10-15T07:57:27;13.73;;;12.32;;
16478;SDS011;8350;52.316;10.530;2022-10-15T07:59:56;12.82;;;11.52;;
16478;SDS011;8350;52.316;10.530;2022-10-15T08:02:23;13.00;;;11.48;;
16478;SDS011;8350;52.316;10.530;2022-10-15T08:04:50;13.00;;;11.68;;
16478;SDS011;8350;52.316;10.530;2022-10-15T08:07:17;14.00;;;12.60;;
16478;SDS011;8350;52.316;10.530;2022-10-15T08:09:44;14.70;;;13.27;;
16478;SDS011;8350;52.316;10.530;2022-10-15T08:12:11;14.05;;;12.45;;
16478;SDS011;8350;52.316;10.530;2022-10-15T08:14:38;15.20;;;13.52;;
16478;SDS011;8350;52.316;10.530;2022-10-15T08:17:07;16.90;;;15.20;;
16478;SDS011;8350;52.316;10.530;2022-10-15T08:19:39;16.70;;;14.95;;
16478;SDS011;8350;52.316;10.530;2022-10-15T08:22:06;14.50;;;13.02;;
16478;SDS011;8350;52.316;10.530;2022-10-15T08:24:33;15.77;;;14.20;;
16478;SDS011;8350;52.316;10.530;2022-10-15T08:27:00;15.43;;;13.93;;
16478;SDS011;8350;52.316;10.530;2022-10-15T08:29:27;14.98;;;13.38;;
16478;SDS011;8350;52.316;10.530;2022-10-15T08:31:54;14.38;;;12.88;;
16478;SDS011;8350;52.316;10.530;2022-10-15T08:34:23;14.73;;;13.23;;
16478;SDS011;8350;52.316;10.530;2022-10-15T08:36:50;14.45;;;12.95;;
16478;SDS011;8350;52.316;10.530;2022-10-15T08:39:17;14.38;;;13.00;;
16478;SDS011;8350;52.316;10.530;2022-10-15T08:41:45;14.48;;;12.98;;
16478;SDS011;8350;52.316;10.530;2022-10-15T08:44:18;14.77;;;13.25;;
16478;SDS011;8350;52.316;10.530;2022-10-15T08:46:49;13.57;;;12.35;;
16478;SDS011;8350;52.316;10.530;2022-10-15T08:49:26;14.68;;;13.20;;
16478;SDS011;8350;52.316;10.530;2022-10-15T08:52:02;14.70;;;13.25;;
16478;SDS011;8350;52.316;10.530;2022-10-15T08:54:38;14.63;;;13.25;;
16478;SDS011;8350;52.316;10.530;2022-10-15T08:57:08;13.30;;;11.95;;
16478;SDS011;8350;52.316;10.530;2022-10-15T08:59:43;14.77;;;13.35;;
16478;SDS011;8350;52.316;10.530;2022-10-15T09:02:15;13.65;;;12.35;;
16478;SDS011;8350;52.316;10.530;2022-10-15T09:04:48;14.88;;;13.43;;
16478;SDS011;8350;52.316;10.530;2022-10-15T09:07:22;14.02;;;12.80;;
16478;SDS011;8350;52.316;10.530;2022-10-15T09:09:56;13.75;;;12.35;;
16478;SDS011;8350;52.316;10.530;2022-10-15T09:12:35;13.45;;;12.07;;
16478;SDS011;8350;52.316;10.530;2022-10-15T09:15:14;13.32;;;11.82;;
16478;SDS011;8350;52.316;10.530;2022-10-15T09:17:43;12.77;;;11.57;;
16478;SDS011;8350;52.316;10.530;2022-10-15T09:20:15;13.52;;;12.23;;
16478;SDS011;8350;52.316;10.530;2022-10-15T09:22:48;12.63;;;11.45;;
16478;SDS011;8350;52.316;10.530;2022-10-15T09:25:17;13.48;;;12.18;;
16478;SDS011;8350;52.316;10.530;2022-10-15T09:27:46;13.70;;;12.38;;
16478;SDS011;8350;52.316;10.530;2022-10-15T09:30:22;13.98;;;12.63;;
16478;SDS011;8350;52.316;10.530;2022-10-15T09:32:54;13.70;;;12.40;;
16478;SDS011;8350;52.316;10.530;2022-10-15T09:35:28;12.57;;;11.38;;
16478;SDS011;8350;52.316;10.530;2022-10-15T09:38:00;14.23;;;12.93;;
16478;SDS011;8350;52.316;10.530;2022-10-15T09:40:38;12.65;;;11.35;;
16478;SDS011;8350;52.316;10.530;2022-10-15T09:43:14;13.95;;;12.48;;
16478;SDS011;8350;52.316;10.530;2022-10-15T09:45:51;13.77;;;12.55;;
16478;SDS011;8350;52.316;10.530;2022-10-15T09:48:18;14.82;;;13.38;;
16478;SDS011;8350;52.316;10.530;2022-10-15T09:50:51;13.82;;;12.52;;
16478;SDS011;8350;52.316;10.530;2022-10-15T09:53:24;13.82;;;12.52;;
16478;SDS011;8350;52.316;10.530;2022-10-15T09:56:02;14.05;;;12.70;;
16478;SDS011;8350;52.316;10.530;2022-10-15T09:58:37;13.75;;;12.45;;
16478;SDS011;8350;52.316;10.530;2022-10-15T10:01:16;14.55;;;13.05;;
16478;SDS011;8350;52.316;10.530;2022-10-15T10:03:44;16.25;;;14.57;;
16478;SDS011;8350;52.316;10.530;2022-10-15T10:06:18;14.57;;;13.07;;
16478;SDS011;8350;52.316;10.530;2022-10-15T10:08:49;14.77;;;13.38;;
16478;SDS011;8350;52.316;10.530;2022-10-15T10:11:18;15.77;;;14.25;;
16478;SDS011;8350;52.316;10.530;2022-10-15T10:13:48;14.85;;;13.45;;
16478;SDS011;8350;52.316;10.530;2022-10-15T10:16:18;14.40;;;12.98;;
16478;SDS011;8350;52.316;10.530;2022-10-15T10:19:00;14.80;;;13.30;;
16478;SDS011;8350;52.316;10.530;2022-10-15T10:21:32;13.43;;;12.13;;
16478;SDS011;8350;52.316;10.530;2022-10-15T10:26:47;13.07;;;11.88;;
16478;SDS011;8350;52.316;10.530;2022-10-15T10:29:15;14.20;;;12.80;;
16478;SDS011;8350;52.316;10.530;2022-10-15T10:31:45;12.75;;;11.52;;
16478;SDS011;8350;52.316;10.530;2022-10-15T10:34:17;12.25;;;10.98;;
16478;SDS011;8350;52.316;10.530;2022-10-15T10:36:50;12.68;;;11.35;;
16478;SDS011;8350;52.316;10.530;2022-10-15T10:39:20;12.25;;;11.10;;
16478;SDS011;8350;52.316;10.530;2022-10-15T10:41:52;11.70;;;10.70;;
16478;SDS011;8350;52.316;10.530;2022-10-15T10:44:24;13.38;;;12.18;;
16478;SDS011;8350;52.316;10.530;2022-10-15T10:47:00;12.25;;;11.15;;
16478;SDS011;8350;52.316;10.530;2022-10-15T10:49:38;12.30;;;11.10;;
16478;SDS011;8350;52.316;10.530;2022-10-15T10:52:19;11.55;;;10.35;;
16478;SDS011;8350;52.316;10.530;2022-10-15T10:54:47;11.93;;;10.65;;
16478;SDS011;8350;52.316;10.530;2022-10-15T10:57:26;11.43;;;9.35;;
16478;SDS011;8350;52.316;10.530;2022-10-15T11:00:10;10.15;;;9.23;;
16478;SDS011;8350;52.316;10.530;2022-10-15T11:02:40;10.30;;;9.35;;
16478;SDS011;8350;52.316;10.530;2022-10-15T11:05:08;9.10;;;8.30;;
16478;SDS011;8350;52.316;10.530;2022-10-15T11:07:38;9.63;;;8.73;;
16478;SDS011;8350;52.316;10.530;2022-10-15T11:10:14;9.63;;;8.73;;
16478;SDS011;8350;52.316;10.530;2022-10-15T11:12:49;9.98;;;9.05;;
16478;SDS011;8350;52.316;10.530;2022-10-15T11:15:32;8.82;;;8.00;;
16478;SDS011;8350;52.316;10.530;2022-10-15T11:18:15;8.13;;;7.45;;
16478;SDS011;8350;52.316;10.530;2022-10-15T11:21:09;9.48;;;8.57;;
16478;SDS011;8350;52.316;10.530;2022-10-15T11:26:47;8.80;;;7.90;;
16478;SDS011;8350;52.316;10.530;2022-10-15T11:29:25;8.32;;;7.63;;
16478;SDS011;8350;52.316;10.530;2022-10-15T11:32:01;7.25;;;6.55;;
16478;SDS011;8350;52.316;10.530;2022-10-15T11:34:40;6.65;;;6.05;;
16478;SDS011;8350;52.316;10.530;2022-10-15T11:37:20;5.55;;;5.05;;
16478;SDS011;8350;52.316;10.530;2022-10-15T11:40:08;4.65;;;4.25;;
16478;SDS011;8350;52.316;10.530;2022-10-15T11:42:44;4.97;;;4.50;;
16478;SDS011;8350;52.316;10.530;2022-10-15T11:48:21;4.47;;;4.13;;
16478;SDS011;8350;52.316;10.530;2022-10-15T11:50:56;3.75;;;3.45;;
16478;SDS011;8350;52.316;10.530;2022-10-15T11:56:28;4.95;;;2.58;;
16478;SDS011;8350;52.316;10.530;2022-10-15T11:59:01;3.05;;;2.75;;
16478;SDS011;8350;52.316;10.530;2022-10-15T12:01:38;2.78;;;2.58;;
16478;SDS011;8350;52.316;10.530;2022-10-15T12:04:15;2.53;;;2.33;;
16478;SDS011;8350;52.316;10.530;2022-10-15T12:06:48;2.50;;;2.30;;
16478;SDS011;8350;52.316;10.530;2022-10-15T12:09:19;2.35;;;2.15;;
16478;SDS011;8350;52.316;10.530;2022-10-15T12:11:52;1.98;;;1.70;;
16478;SDS011;8350;52.316;10.530;2022-10-15T12:14:27;2.30;;;2.10;;
16478;SDS011;8350;52.316;10.530;2022-10-15T12:17:01;2.30;;;1.98;;
16478;SDS011;8350;52.316;10.530;2022-10-15T12:19:36;3.03;;;2.10;;
16478;SDS011;8350;52.316;10.530;2022-10-15T12:22:07;2.22;;;2.00;;
16478;SDS011;8350;52.316;10.530;2022-10-15T12:24:47;3.55;;;2.70;;
16478;SDS011;8350;52.316;10.530;2022-10-15T12:27:22;4.78;;;2.85;;
16478;SDS011;8350;52.316;10.530;2022-10-15T12:30:10;2.92;;;2.28;;
16478;SDS011;8350;52.316;10.530;2022-10-15T12:32:51;2.20;;;2.00;;
16478;SDS011;8350;52.316;10.530;2022-10-15T12:35:23;2.15;;;1.95;;
16478;SDS011;8350;52.316;10.530;2022-10-15T12:38:09;1.90;;;1.58;;
16478;SDS011;8350;52.316;10.530;2022-10-15T12:40:44;2.15;;;1.95;;
16478;SDS011;8350;52.316;10.530;2022-10-15T12:43:13;2.38;;;2.17;;
16478;SDS011;8350;52.316;10.530;2022-10-15T12:45:48;1.90;;;1.50;;
16478;SDS011;8350;52.316;10.530;2022-10-15T12:48:27;1.85;;;1.65;;
16478;SDS011;8350;52.316;10.530;2022-10-15T13:00:36;1.88;;;1.65;;
16478;SDS011;8350;52.316;10.530;2022-10-15T13:03:16;2.70;;;2.35;;
16478;SDS011;8350;52.316;10.530;2022-10-15T13:08:52;2.95;;;2.75;;
16478;SDS011;8350;52.316;10.530;2022-10-15T13:11:23;3.63;;;3.33;;
16478;SDS011;8350;52.316;10.530;2022-10-15T13:13:55;4.00;;;3.35;;
16478;SDS011;8350;52.316;10.530;2022-10-15T13:16:27;3.65;;;3.35;;
16478;SDS011;8350;52.316;10.530;2022-10-15T13:18:55;3.72;;;3.22;;
16478;SDS011;8350;52.316;10.530;2022-10-15T13:24:14;3.58;;;2.88;;
16478;SDS011;8350;52.316;10.530;2022-10-15T13:26:44;3.63;;;3.30;;
16478;SDS011;8350;52.316;10.530;2022-10-15T13:29:14;5.10;;;3.80;;
16478;SDS011;8350;52.316;10.530;2022-10-15T13:31:43;7.18;;;3.30;;
16478;SDS011;8350;52.316;10.530;2022-10-15T13:34:13;7.30;;;3.30;;
16478;SDS011;8350;52.316;10.530;2022-10-15T13:36:46;3.15;;;2.85;;
16478;SDS011;8350;52.316;10.530;2022-10-15T13:39:22;3.20;;;2.72;;
16478;SDS011;8350;52.316;10.530;2022-10-15T13:41:54;3.10;;;2.78;;
16478;SDS011;8350;52.316;10.530;2022-10-15T13:44:32;2.90;;;2.58;;
16478;SDS011;8350;52.316;10.530;2022-10-15T13:47:01;4.22;;;2.70;;
16478;SDS011;8350;52.316;10.530;2022-10-15T13:49:28;3.05;;;2.85;;
16478;SDS011;8350;52.316;10.530;2022-10-15T13:51:55;3.13;;;2.83;;
16478;SDS011;8350;52.316;10.530;2022-10-15T13:54:24;3.55;;;3.05;;
16478;SDS011;8350;52.316;10.530;2022-10-15T13:56:56;3.40;;;2.78;;
16478;SDS011;8350;52.316;10.530;2022-10-15T13:59:26;2.88;;;2.53;;
16478;SDS011;8350;52.316;10.530;2022-10-15T14:01:57;3.67;;;2.78;;
16478;SDS011;8350;52.316;10.530;2022-10-15T14:04:27;3.42;;;3.05;;
16478;SDS011;8350;52.316;10.530;2022-10-15T14:06:58;3.15;;;2.47;;
16478;SDS011;8350;52.316;10.530;2022-10-15T14:09:28;3.03;;;2.55;;
16478;SDS011;8350;52.316;10.530;2022-10-15T14:11:57;2.88;;;2.00;;
16478;SDS011;8350;52.316;10.530;2022-10-15T14:14:28;2.58;;;1.90;;
16478;SDS011;8350;52.316;10.530;2022-10-15T14:16:57;1.63;;;1.35;;
16478;SDS011;8350;52.316;10.530;2022-10-15T14:19:27;1.42;;;1.33;;
16478;SDS011;8350;52.316;10.530;2022-10-15T14:21:56;1.30;;;1.20;;
16478;SDS011;8350;52.316;10.530;2022-10-15T14:24:27;1.75;;;1.27;;
16478;SDS011;8350;52.316;10.530;2022-10-15T14:27:00;4.45;;;1.20;;
16478;SDS011;8350;52.316;10.530;2022-10-15T14:29:42;1.83;;;1.20;;
16478;SDS011;8350;52.316;10.530;2022-10-15T14:32:18;1.23;;;1.13;;
16478;SDS011;8350;52.316;10.530;2022-10-15T14:34:54;1.95;;;1.05;;
16478;SDS011;8350;52.316;10.530;2022-10-15T14:37:37;1.00;;;0.90;;
16478;SDS011;8350;52.316;10.530;2022-10-15T14:40:13;1.30;;;0.80;;
16478;SDS011;8350;52.316;10.530;2022-10-15T14:42:44;1.52;;;1.00;;
16478;SDS011;8350;52.316;10.530;2022-10-15T14:45:12;2.17;;;0.90;;
16478;SDS011;8350;52.316;10.530;2022-10-15T14:47:46;0.60;;;0.60;;
16478;SDS011;8350;52.316;10.530;2022-10-15T14:50:18;1.13;;;0.73;;
16478;SDS011;8350;52.316;10.530;2022-10-15T14:52:46;1.75;;;0.90;;
16478;SDS011;8350;52.316;10.530;2022-10-15T14:55:18;1.02;;;0.70;;
16478;SDS011;8350;52.316;10.530;2022-10-15T14:57:58;1.58;;;0.88;;
16478;SDS011;8350;52.316;10.530;2022-10-15T15:00:27;1.00;;;0.80;;
16478;SDS011;8350;52.316;10.530;2022-10-15T15:02:57;2.00;;;0.93;;
16478;SDS011;8350;52.316;10.530;2022-10-15T15:05:29;0.85;;;0.73;;
16478;SDS011;8350;52.316;10.530;2022-10-15T15:07:56;0.88;;;0.80;;
16478;SDS011;8350;52.316;10.530;2022-10-15T15:10:24;0.73;;;0.73;;
16478;SDS011;8350;52.316;10.530;2022-10-15T15:12:53;1.70;;;0.80;;
16478;SDS011;8350;52.316;10.530;2022-10-15T15:15:22;0.60;;;0.60;;
16478;SDS011;8350;52.316;10.530;2022-10-15T15:17:51;2.17;;;0.73;;
16478;SDS011;8350;52.316;10.530;2022-10-15T15:20:19;0.90;;;0.60;;
16478;SDS011;8350;52.316;10.530;2022-10-15T15:22:48;1.33;;;0.82;;
16478;SDS011;8350;52.316;10.530;2022-10-15T15:25:17;0.50;;;0.50;;
16478;SDS011;8350;52.316;10.530;2022-10-15T15:27:46;2.78;;;0.50;;
16478;SDS011;8350;52.316;10.530;2022-10-15T15:30:14;0.65;;;0.60;;
16478;SDS011;8350;52.316;10.530;2022-10-15T15:32:43;0.70;;;0.70;;
16478;SDS011;8350;52.316;10.530;2022-10-15T15:35:20;0.63;;;0.60;;